createdAt,value
2019-03-09T00:01:49.921Z,6.90
2019-03-09T00:04:19.551Z,6.80
2019-03-09T00:06:49.415Z,6.80
2019-03-09T00:09:19.103Z,6.80
2019-03-09T00:11:48.733Z,6.80
2019-03-09T00:14:19.162Z,6.90
2019-03-09T00:16:49.668Z,6.80
2019-03-09T00:19:19.393Z,6.80
2019-03-09T00:21:49.156Z,6.80
2019-03-09T00:24:47.092Z,6.70
2019-03-09T00:27:40.550Z,6.70
2019-03-09T00:30:45.488Z,6.70
2019-03-09T00:33:15.376Z,6.70
2019-03-09T00:35:44.999Z,6.70
2019-03-09T00:38:15.120Z,6.70
2019-03-09T00:40:45.000Z,6.70
2019-03-09T00:43:14.609Z,6.70
2019-03-09T00:45:44.236Z,6.70
2019-03-09T00:48:14.008Z,6.70
2019-03-09T00:50:43.629Z,6.70
2019-03-09T00:53:13.314Z,6.70
2019-03-09T00:55:43.110Z,6.60
2019-03-09T00:58:12.770Z,6.70
2019-03-09T01:00:42.578Z,6.70
2019-03-09T01:03:12.952Z,6.60
2019-03-09T01:05:43.003Z,6.60
2019-03-09T01:08:18.008Z,6.70
2019-03-09T01:10:47.725Z,6.60
2019-03-09T01:13:17.697Z,6.60
2019-03-09T01:15:47.512Z,6.60
2019-03-09T01:18:17.271Z,6.60
2019-03-09T01:20:46.920Z,6.60
2019-03-09T01:23:16.593Z,6.60
2019-03-09T01:25:46.259Z,6.60
2019-03-09T01:28:16.028Z,6.50
2019-03-09T01:30:46.770Z,6.50
2019-03-09T01:33:16.873Z,6.40
2019-03-09T01:35:46.475Z,6.50
2019-03-09T01:38:17.657Z,6.60
2019-03-09T01:40:47.561Z,6.40
2019-03-09T01:43:17.346Z,6.50
2019-03-09T01:45:47.150Z,6.50
2019-03-09T01:48:16.956Z,6.50
2019-03-09T01:50:47.204Z,6.50
2019-03-09T01:53:16.961Z,6.50
2019-03-09T01:55:46.931Z,6.40
2019-03-09T01:58:16.801Z,6.50
2019-03-09T02:00:46.755Z,6.50
2019-03-09T02:03:16.574Z,6.50
2019-03-09T02:05:46.337Z,6.50
2019-03-09T02:08:16.547Z,6.50
2019-03-09T02:10:46.296Z,6.50
2019-03-09T02:13:16.184Z,6.40
2019-03-09T02:15:46.333Z,6.50
2019-03-09T02:18:16.253Z,6.50
2019-03-09T02:20:46.453Z,6.40
2019-03-09T02:23:16.292Z,6.40
2019-03-09T02:25:46.520Z,6.50
2019-03-09T02:28:16.540Z,6.40
2019-03-09T02:30:46.538Z,6.40
2019-03-09T02:33:16.493Z,6.40
2019-03-09T02:35:46.253Z,6.40
2019-03-09T02:38:42.711Z,6.40
2019-03-09T02:41:12.309Z,6.40
2019-03-09T02:44:01.159Z,6.40
2019-03-09T02:46:30.789Z,6.40
2019-03-09T02:49:00.532Z,6.40
2019-03-09T02:51:30.257Z,6.40
2019-03-09T02:53:59.942Z,6.40
2019-03-09T02:56:29.658Z,6.40
2019-03-09T02:58:59.359Z,6.40
2019-03-09T03:01:39.984Z,6.40
2019-03-09T03:04:09.766Z,6.50
2019-03-09T03:06:39.473Z,6.50
2019-03-09T03:09:09.331Z,6.50
2019-03-09T03:11:39.008Z,6.50
2019-03-09T03:14:08.677Z,6.50
2019-03-09T03:16:38.284Z,6.50
2019-03-09T03:19:08.038Z,6.50
2019-03-09T03:21:37.853Z,6.50
2019-03-09T03:24:07.585Z,6.60
2019-03-09T03:26:37.269Z,6.60
2019-03-09T03:29:06.936Z,6.60
2019-03-09T03:31:36.645Z,6.70
2019-03-09T03:34:08.475Z,6.70
2019-03-09T03:36:38.124Z,6.70
2019-03-09T03:39:08.825Z,6.70
2019-03-09T03:41:38.583Z,6.70
2019-03-09T03:44:08.322Z,6.70
2019-03-09T03:46:37.988Z,6.70
2019-03-09T03:49:07.665Z,6.70
2019-03-09T03:51:37.372Z,6.70
2019-03-09T03:54:07.126Z,6.80
2019-03-09T03:56:36.996Z,6.80
2019-03-09T03:59:06.667Z,6.80
2019-03-09T04:01:36.362Z,6.90
2019-03-09T04:04:05.951Z,6.90
2019-03-09T04:06:36.242Z,6.80
2019-03-09T04:09:07.464Z,6.90
2019-03-09T04:11:37.195Z,6.90
2019-03-09T04:14:07.137Z,6.90
2019-03-09T04:16:37.229Z,7.00
2019-03-09T04:19:07.024Z,7.00
2019-03-09T04:21:37.234Z,7.00
2019-03-09T04:24:07.023Z,7.00
2019-03-09T04:26:36.939Z,7.00
2019-03-09T04:29:07.229Z,7.00
2019-03-09T04:31:37.183Z,7.00
2019-03-09T04:34:07.206Z,7.10
2019-03-09T04:36:37.063Z,7.00
2019-03-09T04:39:09.786Z,7.00
2019-03-09T04:41:39.624Z,7.00
2019-03-09T04:44:09.528Z,7.00
2019-03-09T04:46:41.258Z,7.00
2019-03-09T04:49:11.243Z,7.00
2019-03-09T04:51:41.149Z,7.00
2019-03-09T04:54:11.185Z,7.00
2019-03-09T04:56:41.074Z,6.90
2019-03-09T04:59:10.978Z,6.90
2019-03-09T05:01:40.921Z,6.90
2019-03-09T05:04:42.556Z,6.90
2019-03-09T05:07:15.095Z,6.80
2019-03-09T05:10:27.228Z,6.80
2019-03-09T05:13:09.627Z,6.90
2019-03-09T05:15:39.514Z,6.90
2019-03-09T05:18:09.527Z,6.90
2019-03-09T05:20:39.825Z,6.80
2019-03-09T05:23:09.791Z,6.90
2019-03-09T05:25:40.023Z,6.90
2019-03-09T05:28:09.816Z,6.90
2019-03-09T05:30:41.339Z,7.00
2019-03-09T05:33:30.085Z,7.00
2019-03-09T05:36:00.094Z,7.00
2019-03-09T05:38:30.663Z,7.00
2019-03-09T05:41:00.557Z,7.00
2019-03-09T05:43:30.233Z,7.00
2019-03-09T05:46:00.075Z,7.00
2019-03-09T05:48:30.012Z,7.00
2019-03-09T05:50:59.784Z,7.00
2019-03-09T05:53:29.478Z,7.00
2019-03-09T05:55:59.150Z,7.00
2019-03-09T05:58:29.206Z,6.90
2019-03-09T06:00:59.279Z,6.90
2019-03-09T06:03:29.256Z,6.90
2019-03-09T06:06:18.580Z,6.80
2019-03-09T06:08:49.678Z,6.90
2019-03-09T06:11:19.486Z,6.80
2019-03-09T06:13:49.147Z,6.80
2019-03-09T06:35:35.993Z,6.70
2019-03-09T06:38:18.832Z,6.60
2019-03-09T06:40:48.295Z,6.60
2019-03-09T06:43:17.836Z,6.60
2019-03-09T06:45:47.867Z,6.60
2019-03-09T06:48:17.631Z,6.60
2019-03-09T06:50:47.135Z,6.60
2019-03-09T06:53:16.847Z,6.60
2019-03-09T06:55:46.729Z,6.60
2019-03-09T06:58:16.525Z,6.70
2019-03-09T07:00:46.119Z,6.60
2019-03-09T07:03:16.248Z,6.60
2019-03-09T07:05:46.092Z,6.70
2019-03-09T07:08:15.871Z,6.70
2019-03-09T07:10:45.366Z,6.70
2019-03-09T07:13:16.942Z,6.60
2019-03-09T07:15:47.138Z,6.70
2019-03-09T07:18:28.373Z,6.90
2019-03-09T07:20:57.945Z,6.90
2019-03-09T07:23:27.548Z,6.80
2019-03-09T07:25:57.091Z,6.90
2019-03-09T07:28:26.615Z,6.90
2019-03-09T07:30:56.143Z,6.80
2019-03-09T07:33:25.690Z,7.00
2019-03-09T07:35:55.177Z,6.90
2019-03-09T07:38:29.922Z,7.10
2019-03-09T07:40:59.447Z,7.00
2019-03-09T07:43:33.275Z,7.00
2019-03-09T07:46:03.535Z,7.20
2019-03-09T07:48:33.992Z,7.10
2019-03-09T07:51:03.895Z,7.10
2019-03-09T07:53:33.670Z,7.20
2019-03-09T07:56:04.128Z,7.30
2019-03-09T07:58:33.950Z,7.40
2019-03-09T08:01:03.813Z,7.40
2019-03-09T08:03:33.389Z,7.40
2019-03-09T08:06:04.946Z,7.50
2019-03-09T08:08:34.678Z,7.50
2019-03-09T08:11:04.298Z,7.60
2019-03-09T08:13:34.500Z,7.60
2019-03-09T08:16:04.378Z,7.60
2019-03-09T08:18:33.984Z,7.60
2019-03-09T08:21:08.003Z,7.70
2019-03-09T08:23:37.607Z,7.70
2019-03-09T08:26:07.331Z,7.80
2019-03-09T08:28:37.520Z,7.80
2019-03-09T08:31:07.290Z,7.70
2019-03-09T08:33:37.473Z,7.70
2019-03-09T08:36:07.210Z,7.80
2019-03-09T08:38:37.250Z,7.70
2019-03-09T08:41:07.196Z,7.70
2019-03-09T08:43:38.487Z,7.80
2019-03-09T08:46:09.232Z,7.80
2019-03-09T08:48:38.750Z,7.80
2019-03-09T08:51:10.347Z,7.80
2019-03-09T08:53:39.781Z,7.80
2019-03-09T08:56:11.619Z,7.90
2019-03-09T08:58:41.184Z,7.90
2019-03-09T09:01:10.805Z,8.00
2019-03-09T09:03:40.231Z,8.00
2019-03-09T09:11:21.265Z,8.10
2019-03-09T09:13:52.135Z,8.20
2019-03-09T09:16:48.910Z,8.20
2019-03-09T09:19:45.227Z,8.30
2019-03-09T09:22:45.238Z,8.30
2019-03-09T09:25:26.671Z,8.40
2019-03-09T09:27:56.756Z,8.40
2019-03-09T09:30:27.909Z,8.40
2019-03-09T09:32:57.977Z,8.50
2019-03-09T09:35:28.171Z,8.60
2019-03-09T09:37:58.644Z,8.50
2019-03-09T09:40:29.906Z,8.70
2019-03-09T09:43:00.590Z,8.60
2019-03-09T09:45:31.508Z,8.70
2019-03-09T09:48:31.560Z,8.80
2019-03-09T09:51:30.746Z,8.90
2019-03-09T09:54:25.649Z,9.00
2019-03-09T09:56:55.891Z,9.10
2019-03-09T09:59:25.799Z,9.00
2019-03-09T10:01:55.711Z,9.20
2019-03-09T10:04:25.994Z,9.00
2019-03-09T10:06:57.973Z,9.20
2019-03-09T10:09:28.978Z,9.30
2019-03-09T10:11:59.169Z,9.50
2019-03-09T10:14:29.965Z,9.40
2019-03-09T10:17:05.671Z,9.50
2019-03-09T10:19:35.679Z,9.60
2019-03-09T10:22:20.777Z,9.60
2019-03-09T10:24:58.133Z,9.50
2019-03-09T10:27:28.161Z,9.60
2019-03-09T10:29:57.960Z,9.80
2019-03-09T10:32:28.191Z,9.80
2019-03-09T10:34:58.566Z,9.50
2019-03-09T10:37:29.040Z,9.90
2019-03-09T10:39:59.094Z,9.90
2019-03-09T10:42:47.614Z,9.80
2019-03-09T10:45:21.901Z,10.00
2019-03-09T10:47:52.075Z,10.00
2019-03-09T10:50:25.788Z,10.00
2019-03-09T10:52:59.238Z,10.10
2019-03-09T10:55:29.434Z,10.40
2019-03-09T10:57:59.578Z,10.40
2019-03-09T11:00:31.456Z,10.60
2019-03-09T11:03:01.374Z,10.50
2019-03-09T11:05:31.351Z,10.40
2019-03-09T11:08:01.122Z,10.50
2019-03-09T11:10:31.057Z,10.70
2019-03-09T11:13:02.626Z,10.90
2019-03-09T11:15:37.903Z,10.50
2019-03-09T11:18:12.158Z,10.50
2019-03-09T11:20:42.897Z,10.90
2019-03-09T11:23:12.735Z,10.90
2019-03-09T11:25:43.037Z,11.00
2019-03-09T11:28:14.022Z,11.20
2019-03-09T11:30:44.586Z,11.10
2019-03-09T11:33:15.099Z,11.30
2019-03-09T11:35:45.244Z,11.30
2019-03-09T11:38:15.456Z,11.00
2019-03-09T11:40:56.853Z,11.20
2019-03-09T11:43:19.399Z,11.50
2019-03-09T11:45:52.348Z,11.80
2019-03-09T11:48:22.775Z,11.90
2019-03-09T11:50:53.089Z,12.20
2019-03-09T11:53:23.868Z,11.80
2019-03-09T11:55:54.786Z,11.40
2019-03-09T11:58:25.377Z,11.40
2019-03-09T12:00:55.218Z,11.70
2019-03-09T12:03:26.008Z,11.50
2019-03-09T12:05:56.112Z,11.90
2019-03-09T12:08:26.536Z,11.80
2019-03-09T12:10:56.866Z,11.80
2019-03-09T12:13:27.052Z,11.90
2019-03-09T12:15:59.317Z,11.70
2019-03-09T12:18:29.662Z,11.70
2019-03-09T12:21:00.966Z,11.80
2019-03-09T12:23:31.694Z,11.80
2019-03-09T12:26:02.185Z,11.30
2019-03-09T12:28:32.293Z,11.30
2019-03-09T12:31:03.733Z,11.10
2019-03-09T12:33:34.173Z,11.10
2019-03-09T12:36:05.657Z,11.30
2019-03-09T12:38:36.665Z,11.40
2019-03-09T12:41:07.568Z,11.40
2019-03-09T12:43:37.644Z,11.80
2019-03-09T12:46:10.915Z,11.60
2019-03-09T12:48:44.343Z,11.50
2019-03-09T12:51:16.192Z,11.60
2019-03-09T12:53:48.919Z,11.50
2019-03-09T12:56:20.446Z,11.50
2019-03-09T12:58:56.441Z,11.50
2019-03-09T13:01:27.216Z,11.30
2019-03-09T13:03:58.767Z,11.10
2019-03-09T13:06:29.070Z,11.40
2019-03-09T13:09:00.260Z,11.30
2019-03-09T13:11:32.506Z,11.60
2019-03-09T13:14:04.191Z,11.50
2019-03-09T13:16:35.604Z,11.70
2019-03-09T13:19:08.966Z,11.40
2019-03-09T13:21:39.653Z,11.00
2019-03-09T13:24:11.319Z,11.30
2019-03-09T13:26:42.302Z,11.60
2019-03-09T13:29:13.083Z,11.90
2019-03-09T13:31:43.534Z,11.40
2019-03-09T13:34:14.109Z,11.50
2019-03-09T13:36:44.469Z,11.50
2019-03-09T13:39:14.476Z,11.90
2019-03-09T13:41:45.659Z,11.70
2019-03-09T13:44:16.871Z,11.90
2019-03-09T13:46:47.463Z,11.90
2019-03-09T13:49:20.128Z,11.70
2019-03-09T13:51:50.733Z,12.00
2019-03-09T13:54:21.457Z,11.40
2019-03-09T13:56:53.198Z,11.40
2019-03-09T13:59:24.854Z,11.60
2019-03-09T14:01:55.633Z,11.70
2019-03-09T14:04:26.633Z,11.70
2019-03-09T14:06:56.833Z,11.80
2019-03-09T14:09:28.663Z,11.80
2019-03-09T14:11:59.543Z,11.40
2019-03-09T14:14:31.034Z,11.70
2019-03-09T14:17:03.921Z,11.80
2019-03-09T14:19:35.208Z,11.70
2019-03-09T14:22:05.311Z,11.70
2019-03-09T14:24:35.023Z,11.70
2019-03-09T14:27:05.170Z,11.50
2019-03-09T14:29:34.961Z,11.20
2019-03-09T14:32:04.739Z,11.30
2019-03-09T14:34:34.574Z,11.10
2019-03-09T14:37:04.415Z,11.20
2019-03-09T14:39:34.717Z,11.20
2019-03-09T14:42:04.789Z,11.10
2019-03-09T14:44:34.900Z,11.10
2019-03-09T14:47:04.673Z,11.10
2019-03-09T14:49:34.717Z,11.00
2019-03-09T14:52:04.449Z,10.70
2019-03-09T14:54:34.445Z,10.20
2019-03-09T14:57:06.362Z,10.00
2019-03-09T15:02:58.522Z,9.80
2019-03-09T15:05:54.921Z,9.50
2019-03-09T15:08:37.414Z,9.50
2019-03-09T15:11:25.893Z,9.00
2019-03-09T15:13:59.172Z,9.10
2019-03-09T15:16:31.600Z,8.90
2019-03-09T15:19:04.533Z,8.80
2019-03-09T15:21:34.790Z,8.60
2019-03-09T15:24:05.126Z,8.90
2019-03-09T15:26:35.643Z,8.30
2019-03-09T15:29:07.968Z,8.00
2019-03-09T15:31:38.104Z,8.20
2019-03-09T15:34:09.033Z,8.30
2019-03-09T15:36:40.531Z,8.20
2019-03-09T15:39:11.164Z,7.90
2019-03-09T15:41:42.575Z,8.30
2019-03-09T15:44:13.371Z,8.60
2019-03-09T15:46:44.393Z,8.50
2019-03-09T15:49:15.747Z,8.60
2019-03-09T15:51:48.160Z,8.60
2019-03-09T15:54:19.923Z,8.80
2019-03-09T15:57:01.227Z,8.80
2019-03-09T15:59:36.127Z,8.60
2019-03-09T16:02:18.830Z,8.70
2019-03-09T16:05:11.342Z,8.80
2019-03-09T16:07:54.094Z,8.70
2019-03-09T16:10:34.800Z,8.70
2019-03-09T16:13:15.107Z,8.70
2019-03-09T16:16:06.693Z,8.50
2019-03-09T16:18:44.806Z,8.50
2019-03-09T16:21:38.562Z,8.40
2019-03-09T16:24:13.072Z,7.90
2019-03-09T16:26:56.152Z,7.50
2019-03-09T16:29:27.583Z,7.40
2019-03-09T16:31:59.179Z,7.30
2019-03-09T16:34:32.324Z,7.00
2019-03-09T16:37:07.914Z,7.10
2019-03-09T16:39:40.162Z,7.00
2019-03-09T16:42:19.941Z,7.20
2019-03-09T16:44:55.740Z,7.10
2019-03-09T16:47:26.606Z,7.10
2019-03-09T18:02:42.833Z,5.40
2019-03-09T18:05:13.707Z,5.30
2019-03-09T18:07:43.717Z,5.20
2019-03-09T18:10:17.338Z,5.00
2019-03-09T18:12:53.484Z,5.20
2019-03-09T18:15:23.813Z,5.30
2019-03-09T18:17:57.046Z,5.20
2019-03-09T18:20:28.987Z,5.10
2019-03-09T18:22:59.853Z,5.10
2019-03-09T18:25:29.919Z,5.10
2019-03-09T18:28:01.223Z,5.20
2019-03-09T18:30:36.434Z,5.10
2019-03-09T18:33:07.382Z,5.10
2019-03-09T18:35:38.921Z,5.20
2019-03-09T18:38:38.829Z,5.10
2019-03-09T18:41:11.944Z,5.10
2019-03-09T18:43:45.164Z,5.30
2019-03-09T18:46:23.223Z,5.10
2019-03-09T18:48:53.653Z,5.20
2019-03-09T18:51:37.143Z,5.20
2019-03-09T18:54:07.936Z,5.30
2019-03-09T18:56:38.707Z,5.30
2019-03-09T18:59:09.982Z,5.30
2019-03-09T19:01:39.885Z,5.30
2019-03-09T19:04:10.489Z,5.30
2019-03-09T19:06:40.878Z,5.30
2019-03-09T19:09:13.666Z,5.30
2019-03-09T19:11:44.075Z,5.20
2019-03-09T19:14:14.803Z,5.30
2019-03-09T19:16:51.226Z,5.30
2019-03-09T19:19:25.699Z,5.30
2019-03-09T19:21:56.005Z,5.30
2019-03-09T19:24:29.256Z,5.30
2019-03-09T19:26:59.572Z,5.30
2019-03-09T19:29:33.251Z,5.30
2019-03-09T19:32:05.073Z,5.30
2019-03-09T19:34:40.636Z,5.20
2019-03-09T19:37:11.010Z,5.30
2019-03-09T19:39:43.033Z,5.30
2019-03-09T19:42:15.555Z,5.30
2019-03-09T19:44:48.489Z,5.30
2019-03-09T19:47:19.508Z,5.30
2019-03-09T19:49:49.853Z,5.30
2019-03-09T19:52:19.885Z,5.30
2019-03-09T19:54:51.066Z,5.30
2019-03-09T19:57:20.970Z,5.30
2019-03-09T20:00:02.109Z,5.20
2019-03-09T20:02:32.215Z,5.30
2019-03-09T20:05:02.255Z,5.30
2019-03-09T20:07:32.669Z,5.30
2019-03-09T20:10:02.782Z,5.30
2019-03-09T20:12:33.034Z,5.30
2019-03-09T20:15:04.866Z,5.30
2019-03-09T20:17:37.652Z,5.20
2019-03-09T20:20:10.088Z,5.20
2019-03-09T20:22:44.019Z,5.30
2019-03-09T20:25:15.032Z,5.30
2019-03-09T20:27:51.716Z,5.30
2019-03-09T20:30:27.019Z,5.30
2019-03-09T20:32:59.525Z,5.20
2019-03-09T20:35:31.461Z,5.20
2019-03-09T20:38:03.208Z,5.30
2019-03-09T20:40:33.416Z,5.20
2019-03-09T20:43:03.545Z,5.20
2019-03-09T20:45:45.014Z,5.30
2019-03-09T20:48:23.296Z,5.20
2019-03-09T20:50:54.186Z,5.20
2019-03-09T20:53:24.369Z,5.20
2019-03-09T20:55:54.482Z,5.10
2019-03-09T20:58:25.970Z,5.20
2019-03-09T21:00:56.794Z,5.20
2019-03-09T21:03:27.309Z,5.20
2019-03-09T21:05:58.280Z,5.20
2019-03-09T21:08:30.232Z,5.10
2019-03-09T21:11:04.243Z,5.10
2019-03-09T21:13:40.061Z,5.00
2019-03-09T21:16:11.842Z,5.00
2019-03-09T21:18:43.460Z,5.00
2019-03-09T21:21:13.593Z,5.10
2019-03-09T21:23:44.351Z,5.00
2019-03-09T21:26:15.532Z,5.00
2019-03-09T21:28:45.739Z,5.00
2019-03-09T21:31:16.309Z,5.10
2019-03-09T21:33:46.408Z,5.00
2019-03-09T21:36:16.158Z,4.90
2019-03-09T21:38:46.061Z,4.90
2019-03-09T21:41:16.432Z,4.90
2019-03-09T21:43:46.572Z,4.90
2019-03-09T21:46:18.368Z,4.90
2019-03-09T21:48:51.698Z,4.80
2019-03-09T21:51:23.273Z,4.90
2019-03-09T21:53:53.703Z,4.90
2019-03-09T21:56:24.614Z,4.80
2019-03-09T21:58:58.181Z,4.80
2019-03-09T22:01:28.655Z,4.80
2019-03-09T22:03:58.935Z,4.80
2019-03-09T22:06:30.033Z,4.80
2019-03-09T22:09:00.663Z,4.80
2019-03-09T22:11:31.283Z,4.80
2019-03-09T22:14:02.524Z,4.80
2019-03-09T22:16:34.943Z,4.70
2019-03-09T22:19:05.007Z,4.80
2019-03-09T22:21:35.849Z,4.80
2019-03-09T22:24:06.386Z,4.70
2019-03-09T22:26:36.463Z,4.70
2019-03-09T22:29:07.138Z,4.60
2019-03-09T22:31:40.447Z,4.60
2019-03-09T22:34:10.610Z,4.60
2019-03-09T22:36:41.345Z,4.60
2019-03-09T22:39:18.554Z,4.60
2019-03-09T22:41:49.256Z,4.60
2019-03-09T22:44:19.691Z,4.60
2019-03-09T22:46:51.113Z,4.60
2019-03-09T22:49:22.124Z,4.60
2019-03-09T22:51:54.263Z,4.70
2019-03-09T22:54:25.255Z,4.60
2019-03-09T22:56:55.948Z,4.60
2019-03-09T22:59:26.521Z,4.60
2019-03-09T23:01:56.839Z,4.70
2019-03-09T23:04:27.495Z,4.70
2019-03-09T23:06:59.014Z,4.70
2019-03-09T23:09:29.908Z,4.70
2019-03-09T23:12:02.511Z,4.70
2019-03-09T23:14:32.735Z,4.80
2019-03-09T23:17:03.978Z,4.90
2019-03-09T23:19:34.446Z,4.80
2019-03-09T23:22:05.298Z,4.90
2019-03-09T23:24:36.540Z,4.80
2019-03-09T23:27:08.009Z,4.80
2019-03-09T23:29:38.558Z,4.80
2019-03-09T23:32:09.192Z,5.00
2019-03-09T23:34:40.394Z,5.00
2019-03-09T23:37:11.274Z,4.90
2019-03-09T23:39:41.484Z,4.80
2019-03-09T23:42:11.916Z,5.00
2019-03-09T23:44:43.525Z,5.00
2019-03-09T23:47:15.211Z,5.10
2019-03-09T23:49:46.585Z,5.10
2019-03-09T23:52:16.679Z,4.90
2019-03-09T23:54:47.564Z,5.10
2019-03-09T23:57:18.154Z,5.10
2019-03-09T23:59:48.053Z,5.10
